createdAt,value
2018-03-02T00:02:03.592Z,29.25
2018-03-02T00:04:29.943Z,25.10
2018-03-02T00:06:57.053Z,21.30
2018-03-02T00:09:23.606Z,28.40
2018-03-02T00:11:49.876Z,30.00
2018-03-02T00:14:16.208Z,23.08
2018-03-02T00:16:42.516Z,34.28
2018-03-02T00:19:08.869Z,24.67
2018-03-02T00:21:35.931Z,24.10
2018-03-02T00:24:02.544Z,27.90
2018-03-02T00:26:29.579Z,22.90
2018-03-02T00:28:56.610Z,25.70
2018-03-02T00:31:22.888Z,26.73
2018-03-02T00:33:49.165Z,21.35
2018-03-02T00:36:15.440Z,24.67
2018-03-02T00:38:41.776Z,21.70
2018-03-02T00:41:08.058Z,29.33
2018-03-02T00:43:34.358Z,18.95
2018-03-02T00:46:00.965Z,31.75
2018-03-02T00:48:27.232Z,22.05
2018-03-02T00:50:53.594Z,26.48
2018-03-02T00:53:19.925Z,21.83
2018-03-02T00:55:46.200Z,28.52
2018-03-02T00:58:12.516Z,23.67
2018-03-02T01:00:38.845Z,21.40
2018-03-02T01:03:05.140Z,29.83
2018-03-02T01:05:31.418Z,28.90
2018-03-02T01:07:57.719Z,29.70
2018-03-02T01:10:24.021Z,36.03
2018-03-02T01:12:50.294Z,23.12
2018-03-02T01:15:16.622Z,27.00
2018-03-02T01:17:42.900Z,27.25
2018-03-02T01:20:09.185Z,25.00
2018-03-02T01:22:35.531Z,26.15
2018-03-02T01:25:01.844Z,31.70
2018-03-02T01:27:28.152Z,30.15
2018-03-02T01:29:55.466Z,26.62
2018-03-02T01:32:21.777Z,35.83
2018-03-02T01:34:48.067Z,29.45
2018-03-02T01:37:15.165Z,24.08
2018-03-02T01:39:41.443Z,28.70
2018-03-02T01:42:08.510Z,29.00
2018-03-02T01:44:34.840Z,30.67
2018-03-02T01:47:01.112Z,22.10
2018-03-02T01:49:27.398Z,34.25
2018-03-02T01:51:53.714Z,26.80
2018-03-02T01:54:20.822Z,28.55
2018-03-02T01:56:47.095Z,23.73
2018-03-02T01:59:14.183Z,27.80
2018-03-02T02:01:40.515Z,26.55
2018-03-02T02:04:06.819Z,27.25
2018-03-02T02:06:33.135Z,38.00
2018-03-02T02:09:00.154Z,25.98
2018-03-02T02:11:26.423Z,29.77
2018-03-02T02:13:52.735Z,25.98
2018-03-02T02:16:19.029Z,27.85
2018-03-02T02:18:45.395Z,18.25
2018-03-02T02:21:12.448Z,29.87
2018-03-02T02:23:39.472Z,33.38
2018-03-02T02:26:05.838Z,33.10
2018-03-02T02:28:32.400Z,27.65
2018-03-02T02:30:58.709Z,29.12
2018-03-02T02:33:25.774Z,28.55
2018-03-02T02:35:52.069Z,32.40
2018-03-02T02:38:18.375Z,22.80
2018-03-02T02:40:44.703Z,22.20
2018-03-02T02:43:11.024Z,23.67
2018-03-02T02:45:37.295Z,37.45
2018-03-02T02:48:04.336Z,35.67
2018-03-02T02:50:31.409Z,30.70
2018-03-02T02:52:58.468Z,28.62
2018-03-02T02:55:24.777Z,27.33
2018-03-02T02:57:51.113Z,33.20
2018-03-02T03:00:17.428Z,30.48
2018-03-02T03:02:44.479Z,26.52
2018-03-02T03:05:11.556Z,26.45
2018-03-02T03:07:37.860Z,27.27
2018-03-02T03:10:04.920Z,31.87
2018-03-02T03:12:31.227Z,30.30
2018-03-02T03:14:58.305Z,25.40
2018-03-02T03:17:24.607Z,38.38
2018-03-02T03:19:50.944Z,32.78
2018-03-02T03:22:17.216Z,24.67
2018-03-02T03:24:43.486Z,24.63
2018-03-02T03:27:09.832Z,36.90
2018-03-02T03:29:36.881Z,33.45
2018-03-02T03:32:03.159Z,36.33
2018-03-02T03:34:29.516Z,29.52
2018-03-02T03:36:55.812Z,27.45
2018-03-02T03:39:22.076Z,29.70
2018-03-02T03:41:48.699Z,27.83
2018-03-02T03:44:14.976Z,30.83
2018-03-02T03:46:41.987Z,26.83
2018-03-02T03:49:08.273Z,28.77
2018-03-02T03:51:34.548Z,29.35
2018-03-02T03:54:00.820Z,28.05
2018-03-02T03:56:27.170Z,34.85
2018-03-02T03:58:53.468Z,27.27
2018-03-02T04:01:20.568Z,30.50
2018-03-02T04:03:46.912Z,35.67
2018-03-02T04:06:13.199Z,30.95
2018-03-02T04:08:39.493Z,30.17
2018-03-02T04:11:05.776Z,35.13
2018-03-02T04:13:32.048Z,29.48
2018-03-02T04:15:58.318Z,34.88
2018-03-02T04:18:24.656Z,27.80
2018-03-02T04:20:50.957Z,33.55
2018-03-02T04:23:17.242Z,28.95
2018-03-02T04:25:43.568Z,32.10
2018-03-02T04:28:09.848Z,36.85
2018-03-02T04:30:36.147Z,32.53
2018-03-02T04:33:02.468Z,28.02
2018-03-02T04:35:28.755Z,30.37
2018-03-02T04:37:55.763Z,27.60
2018-03-02T04:40:22.831Z,33.05
2018-03-02T04:42:49.878Z,30.60
2018-03-02T04:45:16.184Z,26.45
2018-03-02T04:47:42.493Z,37.60
2018-03-02T04:50:08.772Z,29.85
2018-03-02T04:52:35.817Z,28.48
2018-03-02T04:55:02.100Z,33.80
2018-03-02T04:57:28.407Z,39.75
2018-03-02T04:59:54.685Z,31.95
2018-03-02T05:02:21.012Z,31.55
2018-03-02T05:04:47.358Z,31.15
2018-03-02T05:07:13.627Z,28.45
2018-03-02T05:09:40.144Z,30.52
2018-03-02T05:12:06.447Z,33.03
2018-03-02T05:14:32.768Z,44.30
2018-03-02T05:16:59.048Z,30.33
2018-03-02T05:19:26.060Z,29.55
2018-03-02T05:21:52.336Z,36.17
2018-03-02T05:24:18.665Z,30.33
2018-03-02T05:26:44.931Z,34.33
2018-03-02T05:29:11.225Z,24.83
2018-03-02T05:31:37.573Z,40.28
2018-03-02T05:34:03.851Z,36.88
2018-03-02T05:36:30.130Z,34.03
2018-03-02T05:38:56.784Z,29.33
2018-03-02T05:41:23.073Z,38.28
2018-03-02T05:43:50.092Z,40.22
2018-03-02T05:46:16.415Z,27.85
2018-03-02T05:48:42.703Z,30.10
2018-03-02T05:51:09.054Z,31.90
2018-03-02T05:53:35.372Z,33.80
2018-03-02T05:56:01.718Z,36.42
2018-03-02T05:58:27.998Z,28.27
2018-03-02T06:00:55.060Z,34.80
2018-03-02T06:03:21.354Z,36.45
2018-03-02T06:05:47.681Z,31.37
2018-03-02T06:08:13.985Z,33.33
2018-03-02T06:10:40.264Z,44.03
2018-03-02T06:13:07.297Z,28.75
2018-03-02T06:15:33.611Z,19.05
2018-03-02T06:17:59.920Z,32.03
2018-03-02T06:20:26.199Z,37.42
2018-03-02T06:22:52.506Z,42.58
2018-03-02T06:25:18.792Z,34.72
2018-03-02T06:27:45.065Z,28.90
2018-03-02T06:30:11.420Z,33.88
2018-03-02T06:32:37.730Z,36.00
2018-03-02T06:35:04.032Z,35.95
2018-03-02T06:37:30.423Z,26.12
2018-03-02T06:39:57.461Z,37.08
2018-03-02T06:42:24.471Z,37.75
2018-03-02T06:44:50.757Z,33.47
2018-03-02T06:47:17.794Z,38.85
2018-03-02T06:49:44.047Z,33.50
2018-03-02T06:52:10.368Z,38.17
2018-03-02T06:54:36.645Z,41.00
2018-03-02T06:57:02.948Z,37.47
2018-03-02T06:59:29.237Z,35.92
2018-03-02T07:01:55.503Z,39.05
2018-03-02T07:04:21.787Z,37.35
2018-03-02T07:06:48.073Z,35.33
2018-03-02T07:09:14.420Z,29.77
2018-03-02T07:11:40.711Z,31.17
2018-03-02T07:14:07.739Z,28.48
2018-03-02T07:16:34.007Z,38.92
2018-03-02T07:19:00.297Z,33.15
2018-03-02T07:21:26.592Z,37.63
2018-03-02T07:23:52.850Z,38.92
2018-03-02T07:26:19.120Z,40.28
2018-03-02T07:28:45.435Z,39.97
2018-03-02T07:31:12.451Z,31.98
2018-03-02T07:33:38.721Z,31.77
2018-03-02T07:36:05.026Z,35.15
2018-03-02T07:38:31.296Z,34.15
2018-03-02T07:40:57.676Z,24.15
2018-03-02T07:43:24.728Z,35.55
2018-03-02T07:45:51.792Z,26.70
2018-03-02T07:48:18.849Z,33.10
2018-03-02T07:50:45.940Z,30.33
2018-03-02T07:53:12.227Z,31.02
2018-03-02T07:55:39.257Z,41.70
2018-03-02T07:58:06.338Z,32.55
2018-03-02T08:00:32.658Z,31.62
2018-03-02T08:02:58.923Z,29.48
2018-03-02T08:05:25.239Z,27.58
2018-03-02T08:07:51.522Z,34.00
2018-03-02T08:10:17.787Z,32.00
2018-03-02T08:12:44.087Z,41.28
2018-03-02T08:15:11.116Z,30.98
2018-03-02T08:17:37.379Z,29.33
2018-03-02T08:20:04.407Z,32.30
2018-03-02T08:22:31.445Z,32.63
2018-03-02T08:24:57.730Z,35.08
2018-03-02T08:27:24.063Z,38.15
2018-03-02T08:29:50.344Z,28.50
2018-03-02T08:32:16.616Z,42.15
2018-03-02T08:34:42.912Z,45.95
2018-03-02T08:37:09.931Z,41.78
2018-03-02T08:39:36.203Z,39.40
2018-03-02T08:42:03.248Z,43.05
2018-03-02T08:44:30.268Z,32.63
2018-03-02T08:46:56.527Z,36.80
2018-03-02T08:49:22.835Z,38.05
2018-03-02T08:51:49.121Z,38.72
2018-03-02T08:54:15.405Z,33.33
2018-03-02T08:56:42.489Z,40.47
2018-03-02T08:59:08.772Z,40.28
2018-03-02T09:01:35.076Z,31.17
2018-03-02T09:04:01.380Z,38.17
2018-03-02T09:06:27.667Z,35.17
2018-03-02T09:08:53.940Z,38.63
2018-03-02T09:11:20.251Z,28.00
2018-03-02T09:13:47.281Z,40.17
2018-03-02T09:16:14.354Z,35.42
2018-03-02T09:18:40.667Z,38.22
2018-03-02T09:21:07.712Z,37.15
2018-03-02T09:23:34.727Z,35.40
2018-03-02T09:26:01.058Z,38.88
2018-03-02T09:28:27.340Z,41.35
2018-03-02T09:30:53.624Z,37.58
2018-03-02T09:33:19.923Z,34.58
2018-03-02T09:35:46.207Z,42.05
2018-03-02T09:38:13.223Z,32.55
2018-03-02T09:40:39.547Z,39.55
2018-03-02T09:43:05.863Z,38.65
2018-03-02T09:45:32.135Z,46.78
2018-03-02T09:47:58.427Z,33.55
2018-03-02T09:50:24.700Z,35.08
2018-03-02T09:52:51.744Z,44.70
2018-03-02T09:55:18.085Z,41.20
2018-03-02T09:57:45.122Z,37.25
2018-03-02T10:00:11.376Z,33.58
2018-03-02T10:02:37.713Z,34.28
2018-03-02T10:05:03.983Z,28.48
2018-03-02T10:07:30.267Z,42.28
2018-03-02T10:09:56.571Z,44.67
2018-03-02T10:12:23.596Z,33.08
2018-03-02T10:14:49.855Z,39.17
2018-03-02T10:17:17.147Z,39.72
2018-03-02T10:19:43.425Z,44.30
2018-03-02T10:22:10.456Z,34.63
2018-03-02T10:24:37.060Z,28.60
2018-03-02T10:27:03.318Z,41.42
2018-03-02T10:29:29.589Z,33.88
2018-03-02T10:31:57.072Z,41.53
2018-03-02T10:34:23.332Z,29.33
2018-03-02T10:36:49.604Z,32.65
2018-03-02T10:39:15.891Z,40.30
2018-03-02T10:41:42.155Z,38.25
2018-03-02T10:44:08.424Z,34.10
2018-03-02T10:46:34.719Z,32.22
2018-03-02T10:49:01.015Z,41.88
2018-03-02T10:51:27.348Z,47.50
2018-03-02T10:53:53.676Z,49.92
2018-03-02T10:56:19.963Z,38.92
2018-03-02T10:58:46.264Z,38.45
2018-03-02T11:01:12.624Z,36.30
2018-03-02T11:03:38.983Z,34.88
2018-03-02T11:06:05.292Z,39.05
2018-03-02T11:08:31.632Z,40.63
2018-03-02T11:10:57.923Z,35.22
2018-03-02T11:13:24.244Z,33.95
2018-03-02T11:15:50.588Z,41.58
2018-03-02T11:18:17.626Z,41.13
2018-03-02T11:20:43.900Z,40.80
2018-03-02T11:23:10.228Z,43.25
2018-03-02T11:25:36.556Z,45.25
2018-03-02T11:28:02.875Z,41.08
2018-03-02T11:30:29.967Z,37.85
2018-03-02T11:32:56.251Z,51.30
2018-03-02T11:35:23.327Z,31.73
2018-03-02T11:37:49.645Z,46.00
2018-03-02T11:40:15.961Z,32.15
2018-03-02T11:42:42.243Z,38.92
2018-03-02T11:45:08.584Z,51.17
2018-03-02T11:47:34.907Z,38.45
2018-03-02T11:50:01.264Z,42.72
2018-03-02T11:52:28.411Z,33.42
2018-03-02T11:54:54.684Z,36.40
2018-03-02T11:57:21.032Z,40.97
2018-03-02T11:59:47.343Z,40.22
2018-03-02T12:02:13.631Z,40.05
2018-03-02T12:04:40.053Z,41.53
2018-03-02T12:07:06.647Z,37.67
2018-03-02T12:09:32.930Z,42.70
2018-03-02T12:11:59.981Z,47.13
2018-03-02T12:14:26.293Z,37.97
2018-03-02T12:16:52.639Z,49.15
2018-03-02T12:19:18.966Z,40.15
2018-03-02T12:21:45.616Z,41.37
2018-03-02T12:24:12.647Z,42.85
2018-03-02T12:26:38.996Z,32.30
2018-03-02T12:29:06.120Z,37.90
2018-03-02T12:31:32.412Z,33.20
2018-03-02T12:33:58.675Z,31.08
2018-03-02T12:36:24.952Z,44.60
2018-03-02T12:38:52.035Z,41.90
2018-03-02T12:41:18.304Z,42.20
2018-03-02T12:43:45.363Z,33.20
2018-03-02T12:46:11.635Z,45.92
2018-03-02T12:48:37.887Z,40.97
2018-03-02T12:51:04.206Z,40.17
2018-03-02T12:53:30.524Z,34.35
2018-03-02T12:55:56.828Z,35.22
2018-03-02T12:58:23.163Z,40.42
2018-03-02T13:00:49.647Z,42.28
2018-03-02T13:03:16.018Z,34.20
2018-03-02T13:05:43.163Z,41.45
2018-03-02T13:08:10.172Z,39.80
2018-03-02T13:10:36.464Z,35.97
2018-03-02T13:13:02.770Z,35.45
2018-03-02T13:15:29.043Z,35.80
2018-03-02T13:17:55.355Z,40.47
2018-03-02T13:20:22.008Z,30.25
2018-03-02T13:22:48.292Z,41.90
2018-03-02T13:25:14.702Z,38.63
2018-03-02T13:27:53.461Z,41.13
2018-03-02T13:30:20.532Z,43.17
2018-03-02T13:32:58.919Z,43.83
2018-03-02T13:35:25.993Z,36.60
2018-03-02T13:37:52.287Z,30.20
2018-03-02T13:40:30.789Z,29.05
2018-03-02T13:42:57.124Z,45.63
2018-03-02T13:45:23.400Z,50.47
2018-03-02T13:51:06.987Z,45.70
2018-03-02T13:53:33.291Z,37.33
2018-03-02T13:55:59.587Z,37.80
2018-03-02T13:58:25.903Z,38.72
2018-03-02T14:00:52.215Z,34.47
2018-03-02T14:03:30.872Z,45.67
2018-03-02T14:05:57.912Z,38.58
2018-03-02T14:08:24.971Z,41.78
2018-03-02T14:10:51.256Z,40.72
2018-03-02T14:13:17.603Z,40.12
2018-03-02T14:15:43.884Z,40.17
2018-03-02T14:18:10.190Z,31.35
2018-03-02T14:20:37.255Z,38.55
2018-03-02T14:23:03.536Z,39.03
2018-03-02T14:25:29.824Z,39.83
2018-03-02T14:27:57.210Z,39.72
2018-03-02T14:30:23.490Z,36.30
2018-03-02T14:32:50.555Z,41.30
2018-03-02T14:35:17.118Z,42.08
2018-03-02T14:37:43.417Z,48.90
2018-03-02T14:40:09.744Z,41.65
2018-03-02T14:42:36.837Z,38.30
2018-03-02T14:45:03.158Z,46.70
2018-03-02T14:47:29.473Z,44.90
2018-03-02T14:49:56.131Z,42.10
2018-03-02T14:52:22.399Z,44.88
2018-03-02T14:54:48.700Z,42.62
2018-03-02T14:57:15.377Z,41.75
2018-03-02T14:59:41.768Z,40.12
2018-03-02T15:02:08.076Z,40.35
2018-03-02T15:04:34.388Z,39.97
2018-03-02T15:07:01.435Z,44.85
2018-03-02T15:09:27.795Z,45.75
2018-03-02T15:11:54.093Z,32.75
2018-03-02T15:14:21.104Z,39.30
2018-03-02T15:16:47.402Z,39.88
2018-03-02T15:19:13.711Z,42.38
2018-03-02T15:21:40.784Z,38.33
2018-03-02T15:24:07.118Z,43.20
2018-03-02T15:26:33.479Z,40.38
2018-03-02T15:28:59.780Z,38.63
2018-03-02T15:31:26.068Z,42.13
2018-03-02T15:33:53.185Z,42.20
2018-03-02T15:36:19.451Z,37.28
2018-03-02T15:38:46.693Z,42.47
2018-03-02T15:41:13.800Z,42.90
2018-03-02T15:43:40.081Z,44.03
2018-03-02T15:46:07.114Z,41.83
2018-03-02T15:48:33.600Z,57.03
2018-03-02T15:50:59.891Z,44.08
2018-03-02T15:53:26.953Z,48.03
2018-03-02T15:55:53.984Z,41.45
2018-03-02T15:58:21.041Z,40.50
2018-03-02T16:00:47.395Z,52.15
2018-03-02T16:03:13.766Z,40.72
2018-03-02T16:05:40.072Z,44.35
2018-03-02T16:08:06.423Z,40.28
2018-03-02T16:10:32.731Z,43.63
2018-03-02T16:12:59.017Z,39.55
2018-03-02T16:15:25.335Z,44.63
2018-03-02T16:17:51.743Z,39.70
2018-03-02T16:20:18.255Z,43.30
2018-03-02T16:22:44.523Z,47.67
2018-03-02T16:25:10.821Z,45.55
2018-03-02T16:27:37.115Z,47.38
2018-03-02T16:30:04.144Z,44.75
2018-03-02T16:32:30.855Z,39.88
2018-03-02T16:34:57.124Z,44.95
2018-03-02T16:37:24.162Z,41.05
2018-03-02T16:39:50.468Z,44.42
2018-03-02T16:42:16.766Z,50.80
2018-03-02T16:44:43.060Z,38.05
2018-03-02T16:47:09.388Z,40.67
2018-03-02T16:49:35.656Z,39.65
2018-03-02T16:52:01.984Z,42.40
2018-03-02T16:54:28.638Z,48.90
2018-03-02T16:56:54.923Z,44.55
2018-03-02T16:59:21.267Z,51.10
2018-03-02T17:01:47.656Z,55.85
2018-03-02T17:04:13.957Z,47.05
2018-03-02T17:06:40.252Z,46.95
2018-03-02T17:09:07.372Z,47.88
2018-03-02T17:11:33.739Z,54.67
2018-03-02T17:14:00.073Z,45.28
2018-03-02T17:16:26.387Z,51.03
2018-03-02T17:18:52.704Z,47.80
2018-03-02T17:21:19.034Z,45.08
2018-03-02T17:23:45.351Z,54.47
2018-03-02T17:26:11.665Z,56.78
2018-03-02T17:28:37.980Z,48.15
2018-03-02T17:31:04.323Z,43.45
2018-03-02T17:33:30.604Z,44.55
2018-03-02T17:35:56.893Z,49.92
2018-03-02T17:38:23.212Z,53.70
2018-03-02T17:40:49.486Z,50.60
2018-03-02T17:43:15.764Z,45.53
2018-03-02T17:45:42.088Z,41.13
2018-03-02T17:48:08.390Z,47.80
2018-03-02T17:50:35.428Z,48.70
2018-03-02T17:53:02.832Z,43.75
2018-03-02T17:55:29.144Z,54.78
2018-03-02T17:57:56.164Z,40.08
2018-03-02T18:00:22.481Z,52.03
2018-03-02T18:02:48.748Z,46.08
2018-03-02T18:05:15.025Z,50.03
2018-03-02T18:07:41.351Z,43.50
2018-03-02T18:10:07.666Z,43.55
2018-03-02T18:12:34.009Z,46.35
2018-03-02T18:15:00.429Z,50.12
2018-03-02T18:17:26.793Z,53.30
2018-03-02T18:19:53.140Z,49.13
2018-03-02T18:22:19.683Z,45.78
2018-03-02T18:24:46.711Z,46.47
2018-03-02T18:27:13.036Z,55.30
2018-03-02T18:29:39.340Z,48.58
2018-03-02T18:32:05.721Z,53.72
2018-03-02T18:34:31.999Z,45.15
2018-03-02T18:36:58.287Z,55.25
2018-03-02T18:39:24.583Z,51.37
2018-03-02T18:41:50.908Z,57.15
2018-03-02T18:44:17.241Z,52.80
2018-03-02T18:46:43.542Z,47.92
2018-03-02T18:49:09.825Z,58.38
2018-03-02T18:51:36.419Z,53.90
2018-03-02T18:54:02.727Z,57.62
2018-03-02T18:56:29.005Z,56.08
2018-03-02T18:58:55.297Z,46.92
2018-03-02T19:01:21.569Z,51.97
2018-03-02T19:03:47.903Z,48.92
2018-03-02T19:06:14.222Z,48.38
2018-03-02T19:08:40.551Z,62.80
2018-03-02T19:11:06.830Z,57.92
2018-03-02T19:13:33.872Z,57.20
2018-03-02T19:16:00.908Z,63.70
2018-03-02T19:18:27.319Z,59.88
2018-03-02T19:20:53.640Z,62.55
2018-03-02T19:23:19.920Z,59.38
2018-03-02T19:25:46.211Z,63.35
2018-03-02T19:28:12.817Z,61.58
2018-03-02T19:30:39.113Z,61.22
2018-03-02T19:33:06.134Z,63.60
2018-03-02T19:35:32.435Z,50.15
2018-03-02T19:37:58.741Z,73.68
2018-03-02T19:40:25.050Z,76.97
2018-03-02T19:42:52.208Z,62.42
2018-03-02T19:45:19.248Z,70.82
2018-03-02T19:47:46.292Z,61.22
2018-03-02T19:50:13.364Z,71.00
2018-03-02T19:52:39.697Z,79.82
2018-03-02T19:55:06.008Z,81.93
2018-03-02T19:57:33.056Z,69.25
2018-03-02T20:00:00.112Z,67.00
2018-03-02T20:02:27.144Z,67.70
2018-03-02T20:04:53.445Z,71.05
2018-03-02T20:07:19.732Z,82.35
2018-03-02T20:09:46.020Z,73.18
2018-03-02T20:12:12.625Z,74.00
2018-03-02T20:14:38.981Z,80.05
2018-03-02T20:17:05.263Z,72.50
2018-03-02T20:19:31.563Z,72.25
2018-03-02T20:21:58.657Z,83.25
2018-03-02T20:24:24.943Z,72.75
2018-03-02T20:26:51.297Z,78.47
2018-03-02T20:29:17.573Z,59.97
2018-03-02T20:31:43.876Z,70.32
2018-03-02T20:34:10.252Z,81.00
2018-03-02T20:36:36.561Z,78.28
2018-03-02T20:39:02.955Z,75.43
2018-03-02T20:41:29.335Z,100.72
2018-03-02T20:43:55.613Z,84.55
2018-03-02T20:46:22.829Z,69.75
2018-03-02T20:48:49.221Z,83.70
2018-03-02T20:51:15.536Z,83.35
2018-03-02T20:53:41.813Z,77.03
2018-03-02T20:56:08.137Z,86.30
2018-03-02T20:58:34.416Z,82.57
2018-03-02T21:01:00.821Z,96.00
2018-03-02T21:03:27.187Z,78.40
2018-03-02T21:05:53.544Z,76.12
2018-03-02T21:08:19.844Z,83.82
2018-03-02T21:10:46.149Z,69.30
2018-03-02T21:13:13.173Z,72.95
2018-03-02T21:15:39.466Z,71.05
2018-03-02T21:18:05.773Z,62.25
2018-03-02T21:20:32.801Z,80.95
2018-03-02T21:22:59.105Z,95.32
2018-03-02T21:25:25.390Z,82.85
2018-03-02T21:27:52.407Z,109.70
2018-03-02T21:30:18.675Z,108.10
2018-03-02T21:32:45.212Z,91.75
2018-03-02T21:35:11.491Z,98.80
2018-03-02T21:37:37.752Z,73.05
2018-03-02T21:40:04.810Z,98.35
2018-03-02T21:42:31.827Z,103.85
2018-03-02T21:44:58.133Z,92.28
2018-03-02T21:47:24.431Z,97.47
2018-03-02T21:49:50.704Z,106.45
2018-03-02T21:52:17.005Z,91.10
2018-03-02T21:54:43.282Z,102.55
2018-03-02T21:57:09.568Z,89.22
2018-03-02T21:59:35.879Z,110.72
2018-03-02T22:02:02.207Z,98.82
2018-03-02T22:04:28.473Z,99.57
2018-03-02T22:06:54.768Z,92.20
2018-03-02T22:09:21.083Z,107.25
2018-03-02T22:11:48.124Z,91.32
2018-03-02T22:14:15.177Z,89.93
2018-03-02T22:16:41.481Z,105.10
2018-03-02T22:19:07.744Z,81.65
2018-03-02T22:21:34.076Z,80.30
2018-03-02T22:24:00.378Z,94.43
2018-03-02T22:26:26.663Z,98.80
2018-03-02T22:28:52.978Z,81.03
2018-03-02T22:31:19.283Z,94.65
2018-03-02T22:33:46.356Z,89.47
2018-03-02T22:36:12.648Z,100.20
2018-03-02T22:38:38.956Z,90.40
2018-03-02T22:41:05.247Z,92.65
2018-03-02T22:43:31.537Z,99.35
2018-03-02T22:45:57.899Z,104.18
2018-03-02T22:48:24.170Z,87.05
2018-03-02T22:50:50.502Z,91.47
2018-03-02T22:53:16.811Z,96.90
2018-03-02T22:55:43.112Z,94.80
2018-03-02T22:58:10.163Z,86.80
2018-03-02T23:00:37.219Z,81.72
2018-03-02T23:03:03.521Z,94.85
2018-03-02T23:05:29.783Z,92.07
2018-03-02T23:07:56.104Z,101.20
2018-03-02T23:10:23.124Z,93.78
2018-03-02T23:12:49.400Z,80.18
2018-03-02T23:15:15.699Z,84.18
2018-03-02T23:17:42.716Z,95.97
2018-03-02T23:20:08.979Z,103.55
2018-03-02T23:22:36.031Z,97.45
2018-03-02T23:25:02.333Z,115.93
2018-03-02T23:27:29.363Z,113.30
2018-03-02T23:29:57.149Z,87.15
2018-03-02T23:32:23.410Z,105.32
2018-03-02T23:34:49.684Z,82.40
2018-03-02T23:37:16.013Z,106.90
2018-03-02T23:39:42.315Z,91.78
2018-03-02T23:42:08.602Z,106.75
2018-03-02T23:44:34.892Z,81.10
2018-03-02T23:47:01.161Z,106.63
2018-03-02T23:49:27.435Z,86.80
2018-03-02T23:51:54.087Z,110.07
2018-03-02T23:54:20.388Z,99.68
2018-03-02T23:56:46.717Z,104.25
2018-03-02T23:59:13.032Z,113.47
